Terminal Aerodrome Forecast
Issued by NWS

Home | Current Version | Previous Version | Graphics & Text | Print | Product List | Glossary On
Versions: 1 2 3 4 5 6 7 8 9 10 11 12 13 14 15 16 17 18 19 20 21 22 23
800
FTUS43 KBIS 281708 AAB
TAFMOT
TAF AMD
KMOT 281708Z 2817/2912 29016G24KT P6SM VCSH SCT060
     FM281900 31025G38KT P6SM VCTS BKN090CB
     FM290100 32020G30KT P6SM BKN070
     FM290400 32013G21KT P6SM BKN080=

USA.gov is the U.S. government's official web portal to all federal, state and local government web resources and services.